createdAt,value
2022-09-05T00:01:46.388Z,78.40
2022-09-05T00:04:24.170Z,77.90
2022-09-05T00:06:59.394Z,77.60
2022-09-05T00:09:45.341Z,77.30
2022-09-05T00:12:13.811Z,77.50
2022-09-05T00:15:17.722Z,77.30
2022-09-05T00:19:30.602Z,77.30
2022-09-05T00:24:28.185Z,77.30
2022-09-05T00:24:29.593Z,77.70
2022-09-05T00:26:51.631Z,77.50
2022-09-05T00:29:47.846Z,77.10
2022-09-05T00:32:30.395Z,77.70
2022-09-05T00:35:12.567Z,78.00
2022-09-05T00:37:42.463Z,77.00
2022-09-05T00:40:29.099Z,77.20
2022-09-05T00:43:00.223Z,77.10
2022-09-05T00:45:35.194Z,76.70
2022-09-05T00:48:16.795Z,76.90
2022-09-05T00:50:58.005Z,77.10
2022-09-05T00:53:30.909Z,76.70
2022-09-05T00:56:06.737Z,76.90
2022-09-05T00:58:57.541Z,77.00
2022-09-05T01:01:32.462Z,77.40
2022-09-05T01:04:20.740Z,77.00
2022-09-05T01:07:26.430Z,76.90
2022-09-05T01:10:03.986Z,76.80
2022-09-05T01:12:52.707Z,78.00
2022-09-05T01:15:30.011Z,77.70
2022-09-05T01:18:29.294Z,77.70
2022-09-05T01:21:26.701Z,77.40
2022-09-05T01:24:07.909Z,77.40
2022-09-05T01:26:49.663Z,77.10
2022-09-05T01:29:27.524Z,76.80
2022-09-05T01:32:27.105Z,76.90
2022-09-05T01:35:03.481Z,76.90
2022-09-05T01:37:38.115Z,77.00
2022-09-05T01:40:18.956Z,77.00
2022-09-05T01:43:00.741Z,77.10
2022-09-05T01:45:41.593Z,77.20
2022-09-05T01:48:20.895Z,77.00
2022-09-05T01:50:59.634Z,77.00
2022-09-05T01:53:38.171Z,77.30
2022-09-05T01:56:25.841Z,76.80
2022-09-05T01:59:03.416Z,76.70
2022-09-05T02:01:40.457Z,76.70
2022-09-05T02:05:04.317Z,76.60
2022-09-05T02:07:48.148Z,76.70
2022-09-05T02:10:54.172Z,76.50
2022-09-05T02:13:27.476Z,76.70
2022-09-05T02:16:02.529Z,76.50
2022-09-05T02:18:45.274Z,77.40
2022-09-05T02:21:23.132Z,76.60
2022-09-05T02:24:02.471Z,76.90
2022-09-05T02:26:35.500Z,76.50
2022-09-05T02:29:12.213Z,76.60
2022-09-05T02:31:59.670Z,77.40
2022-09-05T02:34:37.522Z,77.70
2022-09-05T02:37:09.261Z,77.40
2022-09-05T02:45:03.838Z,77.10
2022-09-05T02:45:06.888Z,76.80
2022-09-05T02:45:35.398Z,76.70
2022-09-05T02:48:15.876Z,77.10
2022-09-05T02:55:41.456Z,76.60
2022-09-05T02:57:34.407Z,76.70
2022-09-05T02:57:36.375Z,76.70
2022-09-05T02:59:54.165Z,76.30
2022-09-05T03:02:29.988Z,76.00
2022-09-05T03:05:05.699Z,76.30
2022-09-05T03:07:55.459Z,76.40
2022-09-05T03:10:54.538Z,76.30
2022-09-05T03:13:57.563Z,76.50
2022-09-05T03:17:06.809Z,77.30
2022-09-05T03:19:54.436Z,77.50
2022-09-05T03:23:06.020Z,76.60
2022-09-05T03:26:17.779Z,76.90
2022-09-05T03:29:25.863Z,76.90
2022-09-05T03:32:34.561Z,76.30
2022-09-05T03:35:45.000Z,76.20
2022-09-05T03:38:47.200Z,76.30
2022-09-05T03:41:40.645Z,76.40
2022-09-05T03:44:31.174Z,76.50
2022-09-05T03:47:40.436Z,76.60
2022-09-05T03:54:27.999Z,76.80
2022-09-05T03:57:15.963Z,76.80
2022-09-05T03:57:23.791Z,76.50
2022-09-05T03:59:57.319Z,76.60
2022-09-05T04:07:00.377Z,76.90
2022-09-05T04:08:28.337Z,76.70
2022-09-05T04:08:30.912Z,76.80
2022-09-05T04:11:03.753Z,76.90
2022-09-05T04:13:37.900Z,77.20
2022-09-05T04:16:10.780Z,76.60
2022-09-05T04:18:41.770Z,76.60
2022-09-05T04:21:14.709Z,76.80
2022-09-05T04:23:57.286Z,76.50
2022-09-05T04:26:49.997Z,76.50
2022-09-05T04:29:30.591Z,76.50
2022-09-05T04:32:19.225Z,76.50
2022-09-05T04:35:14.717Z,77.20
2022-09-05T04:37:50.398Z,76.70
2022-09-05T04:40:37.826Z,77.40
2022-09-05T04:43:07.815Z,78.10
2022-09-05T04:45:40.945Z,78.30
2022-09-05T04:48:11.793Z,77.70
2022-09-05T04:51:12.809Z,77.40
2022-09-05T04:54:06.743Z,77.70
2022-09-05T04:56:40.200Z,77.10
2022-09-05T05:02:40.481Z,76.90
2022-09-05T05:06:13.325Z,77.00
2022-09-05T05:06:15.946Z,77.10
2022-09-05T05:07:56.796Z,77.40
2022-09-05T05:12:37.815Z,77.10
2022-09-05T05:18:00.727Z,77.10
2022-09-05T05:18:01.255Z,77.30
2022-09-05T05:19:20.509Z,77.10
2022-09-05T05:21:51.921Z,77.30
2022-09-05T05:24:22.947Z,77.40
2022-09-05T05:26:56.868Z,77.50
2022-09-05T05:29:25.963Z,77.80
2022-09-05T05:31:56.281Z,78.50
2022-09-05T05:34:29.578Z,79.50
2022-09-05T05:37:01.753Z,78.90
2022-09-05T05:39:29.852Z,78.70
2022-09-05T05:41:58.605Z,78.60
2022-09-05T05:44:34.829Z,79.20
2022-09-05T05:47:05.257Z,79.20
2022-09-05T05:49:45.748Z,79.40
2022-09-05T05:52:46.169Z,79.20
2022-09-05T05:55:51.285Z,79.60
2022-09-05T05:58:32.736Z,80.10
2022-09-05T06:01:37.065Z,81.60
2022-09-05T06:04:45.751Z,80.70
2022-09-05T06:07:25.471Z,81.10
2022-09-05T06:14:51.252Z,82.40
2022-09-05T06:15:05.832Z,83.60
2022-09-05T06:16:49.044Z,82.70
2022-09-05T06:21:44.106Z,83.70
2022-09-05T06:23:28.773Z,84.00
2022-09-05T06:26:32.300Z,84.90
2022-09-05T06:29:08.526Z,83.60
2022-09-05T06:31:55.760Z,85.30
2022-09-05T06:34:43.849Z,84.90
2022-09-05T06:37:21.524Z,82.70
2022-09-05T06:40:05.119Z,82.30
2022-09-05T06:42:43.590Z,79.90
2022-09-05T06:45:43.637Z,79.60
2022-09-05T06:48:27.830Z,78.90
2022-09-05T06:51:45.240Z,78.30
2022-09-05T06:54:29.444Z,77.80
2022-09-05T06:57:31.001Z,77.60
2022-09-05T07:00:22.036Z,77.40
2022-09-05T07:03:17.667Z,77.00
2022-09-05T07:05:50.095Z,77.00
2022-09-05T07:08:35.644Z,76.90
2022-09-05T07:11:15.621Z,77.00
2022-09-05T07:13:54.250Z,76.90
2022-09-05T07:16:38.351Z,76.80
2022-09-05T07:19:18.925Z,76.60
2022-09-05T07:21:54.988Z,76.80
2022-09-05T07:24:29.749Z,77.00
2022-09-05T07:27:26.729Z,77.10
2022-09-05T07:30:00.796Z,77.20
2022-09-05T07:32:33.908Z,77.10
2022-09-05T07:35:04.111Z,76.90
2022-09-05T07:37:37.545Z,77.00
2022-09-05T07:40:23.282Z,76.90
2022-09-05T07:43:09.966Z,77.20
2022-09-05T07:45:55.277Z,77.30
2022-09-05T07:48:34.350Z,77.10
2022-09-05T07:56:05.780Z,77.10
2022-09-05T07:56:51.884Z,77.30
2022-09-05T07:57:20.739Z,77.70
2022-09-05T07:59:37.226Z,77.80
2022-09-05T08:02:05.388Z,77.50
2022-09-05T08:04:35.290Z,77.80
2022-09-05T08:07:49.388Z,77.90
2022-09-05T08:10:06.083Z,77.70
2022-09-05T08:13:22.467Z,78.00
2022-09-05T08:15:39.682Z,77.60
2022-09-05T08:18:21.958Z,77.70
2022-09-05T08:20:54.509Z,77.70
2022-09-05T08:23:35.050Z,77.70
2022-09-05T08:26:08.613Z,77.80
2022-09-05T08:28:44.323Z,77.80
2022-09-05T08:31:14.897Z,77.90
2022-09-05T08:33:43.835Z,78.00
2022-09-05T08:36:24.625Z,78.20
2022-09-05T08:38:51.748Z,78.30
2022-09-05T08:41:30.024Z,78.50
2022-09-05T08:46:37.385Z,78.90
2022-09-05T08:47:17.849Z,79.10
2022-09-05T08:50:03.971Z,79.30
2022-09-05T08:52:51.553Z,79.50
2022-09-05T08:55:26.625Z,79.20
2022-09-05T08:58:05.835Z,79.40
2022-09-05T09:00:38.451Z,79.80
2022-09-05T09:03:23.546Z,80.20
2022-09-05T09:06:16.210Z,80.20
2022-09-05T09:09:05.932Z,80.40
2022-09-05T09:11:37.789Z,80.40
2022-09-05T09:14:32.111Z,80.80
2022-09-05T09:17:07.287Z,80.80
2022-09-05T09:19:45.608Z,81.10
2022-09-05T09:22:21.114Z,81.50
2022-09-05T09:25:14.513Z,81.80
2022-09-05T09:28:48.242Z,81.90
2022-09-05T09:31:08.314Z,82.60
2022-09-05T09:33:41.946Z,82.80
2022-09-05T09:36:26.212Z,83.70
2022-09-05T09:39:29.292Z,83.20
2022-09-05T09:42:32.694Z,83.60
2022-09-05T09:45:27.837Z,84.30
2022-09-05T09:48:34.305Z,84.30
2022-09-05T09:51:13.580Z,85.00
2022-09-05T09:54:07.253Z,85.40
2022-09-05T09:57:13.890Z,85.30
2022-09-05T10:00:05.617Z,85.90
2022-09-05T10:08:05.162Z,86.80
2022-09-05T10:10:40.291Z,86.70
2022-09-05T10:10:59.754Z,86.80
2022-09-05T10:12:22.654Z,87.20
2022-09-05T10:15:30.166Z,87.70
2022-09-05T10:18:02.407Z,87.40
2022-09-05T10:20:42.638Z,88.90
2022-09-05T10:23:36.090Z,88.40
2022-09-05T10:26:41.785Z,89.30
2022-09-05T10:29:36.831Z,89.20
2022-09-05T10:35:02.840Z,89.40
2022-09-05T10:35:15.397Z,90.10
2022-09-05T10:37:46.648Z,90.00
2022-09-05T10:40:17.041Z,90.10
2022-09-05T10:42:59.911Z,90.10
2022-09-05T10:45:38.471Z,90.30
2022-09-05T10:48:16.895Z,90.50
2022-09-05T10:50:46.057Z,90.60
2022-09-05T10:53:26.343Z,91.10
2022-09-05T10:56:14.367Z,91.00
2022-09-05T11:02:18.961Z,90.90
2022-09-05T11:02:29.326Z,90.90
2022-09-05T11:04:51.552Z,91.40
2022-09-05T11:07:29.189Z,91.30
2022-09-05T11:10:04.215Z,91.60
2022-09-05T11:12:47.605Z,91.50
2022-09-05T11:15:29.485Z,91.70
2022-09-05T11:18:01.687Z,92.00
2022-09-05T11:20:43.955Z,91.60
2022-09-05T11:23:14.672Z,91.80
2022-09-05T11:25:42.337Z,92.00
2022-09-05T11:28:16.937Z,92.10
2022-09-05T11:30:51.329Z,92.00
2022-09-05T11:39:53.392Z,92.30
2022-09-05T11:39:58.279Z,92.40
2022-09-05T11:40:29.181Z,92.20
2022-09-05T11:43:28.560Z,92.40
2022-09-05T11:46:15.090Z,92.60
2022-09-05T11:49:22.175Z,92.70
2022-09-05T11:52:21.481Z,92.70
2022-09-05T11:55:20.989Z,92.80
2022-09-05T11:58:43.179Z,92.70
2022-09-05T12:01:42.067Z,92.50
2022-09-05T12:04:00.140Z,92.60
2022-09-05T12:07:04.192Z,92.60
2022-09-05T12:10:02.823Z,92.80
2022-09-05T12:12:41.352Z,92.70
2022-09-05T12:15:25.774Z,93.00
2022-09-05T12:18:08.286Z,93.50
2022-09-05T12:20:56.136Z,92.90
2022-09-05T12:24:11.602Z,93.10
2022-09-05T12:27:40.844Z,93.20
2022-09-05T12:29:29.135Z,93.20
2022-09-05T12:33:58.431Z,93.20
2022-09-05T12:36:07.680Z,93.60
2022-09-05T12:40:56.095Z,93.50
2022-09-05T12:41:38.751Z,93.50
2022-09-05T12:44:39.401Z,93.50
2022-09-05T12:46:24.183Z,93.60
2022-09-05T12:48:56.839Z,93.50
2022-09-05T12:51:45.267Z,93.50
2022-09-05T12:54:33.078Z,93.40
2022-09-05T13:02:13.309Z,93.60
2022-09-05T13:03:06.703Z,93.60
2022-09-05T13:03:14.742Z,93.50
2022-09-05T13:05:49.426Z,93.40
2022-09-05T13:08:17.476Z,93.40
2022-09-05T13:14:52.527Z,93.40
2022-09-05T13:15:01.942Z,93.30
2022-09-05T13:16:28.102Z,93.10
2022-09-05T13:19:00.592Z,93.10
2022-09-05T13:21:29.547Z,93.10
2022-09-05T13:24:07.037Z,93.20
2022-09-05T13:26:37.645Z,93.30
2022-09-05T13:29:11.280Z,93.40
2022-09-05T13:38:01.204Z,93.70
2022-09-05T13:38:02.192Z,93.60
2022-09-05T13:38:42.044Z,93.60
2022-09-05T13:40:35.644Z,93.70
2022-09-05T13:43:08.583Z,93.70
2022-09-05T13:45:48.153Z,93.70
2022-09-05T13:49:24.155Z,93.90
2022-09-05T13:51:30.020Z,93.80
2022-09-05T13:54:30.362Z,94.10
2022-09-05T13:57:16.672Z,94.00
2022-09-05T14:00:34.496Z,94.10
2022-09-05T14:03:38.778Z,94.10
2022-09-05T14:06:45.592Z,94.00
2022-09-05T14:09:38.073Z,94.00
2022-09-05T14:12:24.076Z,94.10
2022-09-05T14:15:11.366Z,94.00
2022-09-05T14:17:57.709Z,93.90
2022-09-05T14:20:28.624Z,94.00
2022-09-05T14:23:06.617Z,94.00
2022-09-05T14:29:13.899Z,94.10
2022-09-05T14:37:36.451Z,93.90
2022-09-05T14:37:39.367Z,93.80
2022-09-05T14:38:04.401Z,93.80
2022-09-05T14:41:11.623Z,93.70
2022-09-05T14:43:59.161Z,93.70
2022-09-05T14:46:43.806Z,94.00
2022-09-05T14:49:37.138Z,93.60
2022-09-05T14:52:15.301Z,93.60
2022-09-05T15:02:39.608Z,93.50
2022-09-05T15:02:50.349Z,93.50
2022-09-05T15:03:09.114Z,93.40
2022-09-05T15:05:41.720Z,93.30
2022-09-05T15:08:45.977Z,93.30
2022-09-05T15:12:14.755Z,93.20
2022-09-05T15:13:51.702Z,93.10
2022-09-05T15:16:23.134Z,93.00
2022-09-05T15:18:50.029Z,92.90
2022-09-05T15:21:33.302Z,92.80
2022-09-05T15:24:13.450Z,92.80
2022-09-05T15:26:48.221Z,92.70
2022-09-05T15:29:22.779Z,92.50
2022-09-05T15:31:51.445Z,92.50
2022-09-05T15:34:32.780Z,92.40
2022-09-05T15:37:09.016Z,92.30
2022-09-05T15:39:46.322Z,92.10
2022-09-05T15:42:19.651Z,91.90
2022-09-05T15:45:08.695Z,91.80
2022-09-05T15:47:37.081Z,91.70
2022-09-05T15:50:07.990Z,91.80
2022-09-05T15:52:55.045Z,91.40
2022-09-05T15:55:24.447Z,91.20
2022-09-05T15:57:57.584Z,90.80
2022-09-05T16:00:49.348Z,90.60
2022-09-05T16:05:41.082Z,90.30
2022-09-05T16:10:37.192Z,90.00
2022-09-05T16:10:47.208Z,89.20
2022-09-05T16:14:56.451Z,88.20
2022-09-05T16:23:17.034Z,88.20
2022-09-05T16:23:30.906Z,88.10
2022-09-05T16:23:40.589Z,87.80
2022-09-05T16:26:11.577Z,87.20
2022-09-05T16:28:42.778Z,86.80
2022-09-05T16:31:15.627Z,86.30
2022-09-05T16:33:43.642Z,84.30
2022-09-05T16:36:16.437Z,85.00
2022-09-05T16:38:49.632Z,85.30
2022-09-05T16:41:24.599Z,84.70
2022-09-05T16:43:54.926Z,84.90
2022-09-05T16:46:28.354Z,84.80
2022-09-05T16:49:02.218Z,84.70
2022-09-05T16:51:42.766Z,83.70
2022-09-05T16:54:16.305Z,84.40
2022-09-05T16:56:45.206Z,83.80
2022-09-05T16:59:16.868Z,84.20
2022-09-05T17:02:07.265Z,84.10
2022-09-05T17:05:04.411Z,84.10
2022-09-05T17:07:53.519Z,84.10
2022-09-05T17:10:24.438Z,84.00
2022-09-05T17:12:52.058Z,84.20
2022-09-05T17:15:22.991Z,83.90
2022-09-05T17:18:22.596Z,83.70
2022-09-05T17:20:46.962Z,83.60
2022-09-05T17:26:45.482Z,82.70
2022-09-05T17:29:28.940Z,82.30
2022-09-05T17:29:33.769Z,82.00
2022-09-05T17:31:59.306Z,82.10
2022-09-05T17:34:53.213Z,81.60
2022-09-05T17:37:42.987Z,81.20
2022-09-05T17:40:34.766Z,81.30
2022-09-05T17:43:04.475Z,80.60
2022-09-05T17:45:41.110Z,80.60
2022-09-05T17:48:12.427Z,80.60
2022-09-05T17:50:47.159Z,79.90
2022-09-05T17:53:25.666Z,79.10
2022-09-05T17:56:13.404Z,78.60
2022-09-05T17:59:01.955Z,78.20
2022-09-05T18:01:29.030Z,76.70
2022-09-05T18:04:16.970Z,76.30
2022-09-05T18:06:52.639Z,76.20
2022-09-05T18:09:49.325Z,75.80
2022-09-05T18:13:14.016Z,75.60
2022-09-05T18:15:57.878Z,75.50
2022-09-05T18:21:23.051Z,74.40
2022-09-05T18:26:41.239Z,74.60
2022-09-05T18:29:21.294Z,74.70
2022-09-05T18:32:09.888Z,74.70
2022-09-05T18:34:43.216Z,74.50
2022-09-05T18:37:59.260Z,74.60
2022-09-05T18:40:40.080Z,75.00
2022-09-05T18:43:23.818Z,75.40
2022-09-05T18:45:53.966Z,75.00
2022-09-05T18:48:29.599Z,74.70
2022-09-05T18:51:15.537Z,74.40
2022-09-05T18:53:47.085Z,74.30
2022-09-05T18:56:22.190Z,74.40
2022-09-05T18:59:09.622Z,74.20
2022-09-05T19:01:40.271Z,74.20
2022-09-05T19:04:40.677Z,74.30
2022-09-05T19:07:07.840Z,75.30
2022-09-05T19:09:37.404Z,75.80
2022-09-05T19:12:34.909Z,75.20
2022-09-05T19:14:57.353Z,75.60
2022-09-05T19:17:33.214Z,75.70
2022-09-05T19:20:33.029Z,75.50
2022-09-05T19:23:10.420Z,75.80
2022-09-05T19:25:41.834Z,76.50
2022-09-05T19:36:40.489Z,76.00
2022-09-05T19:36:49.130Z,75.50
2022-09-05T19:36:55.589Z,75.30
2022-09-05T19:37:15.380Z,76.40
2022-09-05T19:43:51.171Z,75.20
2022-09-05T19:47:34.812Z,75.60
2022-09-05T19:47:41.506Z,75.90
2022-09-05T19:48:07.509Z,76.10
2022-09-05T19:50:35.003Z,76.00
2022-09-05T19:53:06.580Z,76.30
2022-09-05T19:55:36.641Z,76.20
2022-09-05T19:58:19.935Z,76.40
2022-09-05T20:01:00.375Z,76.40
2022-09-05T20:03:38.162Z,76.70
2022-09-05T20:06:30.180Z,76.70
2022-09-05T20:09:08.930Z,76.80
2022-09-05T20:11:45.338Z,76.40
2022-09-05T20:14:19.193Z,76.90
2022-09-05T20:16:49.686Z,76.60
2022-09-05T20:19:32.082Z,76.70
2022-09-05T20:22:14.371Z,76.60
2022-09-05T20:24:52.469Z,77.10
2022-09-05T20:27:27.592Z,76.40
2022-09-05T20:29:57.619Z,76.40
2022-09-05T20:32:39.355Z,76.60
2022-09-05T20:39:26.535Z,76.80
2022-09-05T20:43:20.806Z,76.50
2022-09-05T20:43:23.238Z,76.40
2022-09-05T20:43:52.515Z,77.30
2022-09-05T20:51:37.930Z,77.00
2022-09-05T20:54:08.322Z,76.70
2022-09-05T20:54:14.086Z,76.90
2022-09-05T20:55:39.085Z,77.30
2022-09-05T20:58:10.715Z,77.00
2022-09-05T21:00:42.114Z,77.00
2022-09-05T21:03:30.844Z,77.00
2022-09-05T21:06:09.437Z,76.90
2022-09-05T21:08:36.290Z,77.50
2022-09-05T21:11:04.610Z,77.50
2022-09-05T21:13:33.798Z,77.50
2022-09-05T21:16:02.080Z,77.30
2022-09-05T21:18:33.164Z,77.80
2022-09-05T21:21:02.024Z,77.10
2022-09-05T21:23:37.438Z,77.10
2022-09-05T21:26:05.818Z,77.90
2022-09-05T21:28:37.240Z,77.40
2022-09-05T21:31:13.709Z,77.20
2022-09-05T21:33:45.289Z,77.60
2022-09-05T21:36:14.910Z,77.60
2022-09-05T21:38:43.178Z,77.50
2022-09-05T21:41:10.723Z,77.40
2022-09-05T21:47:37.457Z,77.30
2022-09-05T21:47:48.871Z,77.70
2022-09-05T21:49:18.086Z,77.40
2022-09-05T21:51:48.051Z,77.30
2022-09-05T21:59:22.515Z,77.10
2022-09-05T21:59:29.146Z,77.10
2022-09-05T21:59:56.188Z,77.40
2022-09-05T22:02:25.457Z,78.00
2022-09-05T22:04:52.350Z,78.30
2022-09-05T22:07:31.932Z,77.60
2022-09-05T22:10:00.366Z,77.20
2022-09-05T22:12:29.960Z,77.30
2022-09-05T22:14:57.862Z,77.20
2022-09-05T22:17:40.086Z,76.90
2022-09-05T22:20:07.629Z,77.20
2022-09-05T22:22:35.497Z,77.20
2022-09-05T22:25:06.801Z,77.40
2022-09-05T22:27:35.886Z,77.20
2022-09-05T22:30:03.256Z,77.40
2022-09-05T22:32:35.247Z,78.00
2022-09-05T22:35:27.421Z,77.10
2022-09-05T22:37:59.742Z,76.80
2022-09-05T22:40:27.886Z,76.90
2022-09-05T22:42:56.347Z,77.30
2022-09-05T22:45:23.102Z,77.60
2022-09-05T22:47:49.973Z,77.20
2022-09-05T22:50:18.466Z,77.30
2022-09-05T22:52:45.215Z,77.00
2022-09-05T22:55:12.148Z,77.20
2022-09-05T22:57:39.818Z,77.40
2022-09-05T23:00:07.981Z,77.80
2022-09-05T23:02:34.879Z,77.40
2022-09-05T23:05:01.699Z,78.00
2022-09-05T23:07:30.077Z,77.30
2022-09-05T23:09:56.821Z,77.60
2022-09-05T23:12:23.919Z,77.20
2022-09-05T23:14:50.706Z,77.40
2022-09-05T23:17:17.492Z,77.20
2022-09-05T23:19:46.002Z,77.70
2022-09-05T23:22:12.742Z,77.50
2022-09-05T23:24:40.800Z,77.60
2022-09-05T23:27:07.536Z,77.60
2022-09-05T23:29:34.268Z,77.50
2022-09-05T23:32:01.146Z,78.10
2022-09-05T23:34:27.907Z,77.60
2022-09-05T23:36:54.616Z,77.80
2022-09-05T23:39:21.394Z,78.00
2022-09-05T23:41:49.495Z,78.60
2022-09-05T23:44:16.295Z,79.00
2022-09-05T23:46:43.203Z,78.20
2022-09-05T23:49:09.999Z,77.70
2022-09-05T23:51:36.741Z,77.80
2022-09-05T23:54:03.533Z,77.70
2022-09-05T23:56:30.291Z,77.50
2022-09-05T23:58:58.385Z,77.40
